Time;durP1;ratioP1;P1;durP2;ratioP2;P2;SDS_P1;SDS_P2;PMS_P1;PMS_P2;Temp;Humidity;BMP_temperature;BMP_pressure;BME280_temperature;BME280_humidity;BME280_pressure;Samples;Min_cycle;Max_cycle;Signal;HPM_P1;HPM_P2
2022/05/04 00:01:03;;;;;;;9.50;8.40;;;11.10;99.90;;;;;;4952988;28;20185;-72
2022/05/04 00:03:29;;;;;;;9.63;8.83;;;11.10;99.90;;;;;;4950535;28;20671;-72
2022/05/04 00:05:54;;;;;;;11.43;10.30;;;11.10;99.90;;;;;;4952947;28;20216;-72
2022/05/04 00:08:19;;;;;;;13.47;12.20;;;11.00;99.90;;;;;;4952917;28;20208;-72
2022/05/04 00:10:45;;;;;;;11.40;10.13;;;11.00;99.90;;;;;;4951020;28;20529;-71
2022/05/04 00:13:11;;;;;;;11.03;9.50;;;11.00;99.90;;;;;;4951944;28;20184;-72
2022/05/04 00:15:37;;;;;;;11.10;10.10;;;11.00;99.90;;;;;;4951722;28;20192;-72
2022/05/04 00:18:03;;;;;;;10.10;9.20;;;11.00;99.90;;;;;;4951270;28;20459;-72
2022/05/04 00:20:29;;;;;;;9.93;9.03;;;11.00;99.90;;;;;;4952916;28;20591;-72
2022/05/04 00:22:54;;;;;;;11.30;10.20;;;11.10;99.90;;;;;;4952014;28;20213;-72
2022/05/04 00:25:20;;;;;;;10.00;9.03;;;11.10;99.90;;;;;;4952715;28;20192;-72
2022/05/04 00:27:45;;;;;;;11.10;10.10;;;11.00;99.90;;;;;;4950478;28;20221;-72
2022/05/04 00:30:11;;;;;;;10.50;9.50;;;11.00;99.90;;;;;;4952855;28;20181;-72
2022/05/04 00:32:36;;;;;;;11.00;10.10;;;11.00;99.90;;;;;;4952458;28;20256;-72
2022/05/04 00:35:02;;;;;;;10.57;9.70;;;11.00;99.90;;;;;;4951722;28;20663;-71
2022/05/04 00:37:28;;;;;;;11.87;10.90;;;11.00;99.90;;;;;;4953752;28;20259;-71
2022/05/04 00:39:53;;;;;;;11.57;10.57;;;10.90;99.90;;;;;;4950747;28;20189;-72
2022/05/04 00:42:20;;;;;;;9.30;8.60;;;10.90;99.90;;;;;;4952205;28;20205;-71
2022/05/04 00:44:52;;;;;;;10.27;9.37;;;10.90;99.90;;;;;;4952251;28;20187;-72
2022/05/04 00:47:18;;;;;;;10.43;9.47;;;10.80;99.90;;;;;;4952383;28;20476;-71
2022/05/04 00:49:47;;;;;;;11.37;10.40;;;10.80;99.90;;;;;;4951567;28;20440;-72
2022/05/04 00:52:13;;;;;;;9.57;8.77;;;10.70;99.90;;;;;;4951667;28;20440;-71
2022/05/04 00:54:44;;;;;;;10.47;9.53;;;10.60;99.90;;;;;;4952203;28;20441;-72
2022/05/04 00:57:11;;;;;;;13.53;10.00;;;10.60;99.90;;;;;;4951668;28;20448;-72
2022/05/04 00:59:38;;;;;;;9.30;8.50;;;10.70;99.90;;;;;;4949818;28;20437;-72
2022/05/04 01:02:04;;;;;;;10.90;9.93;;;10.70;99.90;;;;;;4952065;28;20455;-72
2022/05/04 01:04:30;;;;;;;9.80;9.00;;;10.70;99.90;;;;;;4952171;28;20447;-72
2022/05/04 01:06:55;;;;;;;10.03;9.03;;;10.70;99.90;;;;;;4951016;28;20472;-72
2022/05/04 01:09:21;;;;;;;16.97;15.23;;;10.60;99.90;;;;;;4951339;28;20478;-72
2022/05/04 01:11:47;;;;;;;11.70;9.40;;;10.60;99.90;;;;;;4951251;28;20979;-72
2022/05/04 01:14:14;;;;;;;10.97;10.00;;;10.60;99.90;;;;;;4952282;28;20742;-72
2022/05/04 01:16:42;;;;;;;11.07;10.17;;;10.60;99.90;;;;;;4949146;28;20436;-71
2022/05/04 01:19:09;;;;;;;11.77;10.10;;;10.60;99.90;;;;;;4950919;28;20463;-72
2022/05/04 01:21:35;;;;;;;12.27;10.03;;;10.60;99.90;;;;;;4950568;28;20452;-72
2022/05/04 01:24:01;;;;;;;11.37;10.00;;;10.60;99.90;;;;;;4951851;28;20441;-72
2022/05/04 01:26:27;;;;;;;10.63;9.73;;;10.70;99.90;;;;;;4951392;28;20560;-71
2022/05/04 01:28:52;;;;;;;12.00;10.90;;;10.70;99.90;;;;;;4951493;28;20264;-72
2022/05/04 01:31:18;;;;;;;10.80;9.90;;;10.60;99.90;;;;;;4952061;28;20442;-72
2022/05/04 01:33:44;;;;;;;12.90;11.70;;;10.60;99.90;;;;;;4950518;28;20188;-72
2022/05/04 01:36:09;;;;;;;12.07;10.87;;;10.60;99.90;;;;;;4952849;28;20241;-71
2022/05/04 01:38:35;;;;;;;11.43;10.43;;;10.60;99.90;;;;;;4951226;28;20460;-72
2022/05/04 01:41:02;;;;;;;11.80;10.80;;;10.70;99.90;;;;;;4949232;28;20255;-72
2022/05/04 01:43:28;;;;;;;12.70;11.53;;;10.70;99.90;;;;;;4951432;28;20484;-72
2022/05/04 01:45:53;;;;;;;11.10;10.10;;;10.80;99.90;;;;;;4950263;28;20522;-72
2022/05/04 01:48:20;;;;;;;11.07;10.13;;;10.80;99.90;;;;;;4950109;28;20742;-71
2022/05/04 01:50:45;;;;;;;12.23;10.03;;;10.80;99.90;;;;;;4951241;28;20193;-71
2022/05/04 01:53:11;;;;;;;11.00;10.00;;;10.90;99.90;;;;;;4951958;28;20471;-71
2022/05/04 01:55:37;;;;;;;10.83;9.83;;;10.80;99.90;;;;;;4953426;28;20666;-71
2022/05/04 01:58:04;;;;;;;11.50;10.50;;;10.80;99.90;;;;;;4954753;28;20471;-71
2022/05/04 02:00:30;;;;;;;10.93;9.93;;;10.80;99.90;;;;;;4955141;28;20276;-72
2022/05/04 02:02:55;;;;;;;12.07;10.97;;;11.00;99.90;;;;;;4954552;28;20495;-72
2022/05/04 02:05:22;;;;;;;12.23;11.03;;;10.90;99.90;;;;;;4955105;28;20870;-71
2022/05/04 02:07:48;;;;;;;10.97;9.97;;;10.90;99.90;;;;;;4954657;28;20678;-72
2022/05/04 02:10:14;;;;;;;12.70;11.50;;;10.90;99.90;;;;;;4954306;28;20452;-71
2022/05/04 02:12:41;;;;;;;12.57;11.37;;;10.80;99.90;;;;;;4954310;28;20444;-71
2022/05/04 02:15:08;;;;;;;11.93;11.03;;;10.80;99.90;;;;;;4954387;28;20451;-71
2022/05/04 02:17:34;;;;;;;10.37;9.47;;;10.90;99.90;;;;;;4954309;28;20867;-72
2022/05/04 02:20:00;;;;;;;12.37;11.27;;;10.90;99.90;;;;;;4952952;28;20483;-72
2022/05/04 02:22:25;;;;;;;11.53;10.53;;;10.90;99.90;;;;;;4954995;28;20480;-71
2022/05/04 02:24:51;;;;;;;12.10;10.93;;;10.80;99.90;;;;;;4955228;28;20297;-72
2022/05/04 02:27:16;;;;;;;13.17;11.90;;;10.90;99.90;;;;;;4953476;28;20287;-72
2022/05/04 02:29:42;;;;;;;13.43;12.13;;;10.90;99.90;;;;;;4952128;28;20251;-70
2022/05/04 02:32:08;;;;;;;11.37;10.40;;;10.90;99.90;;;;;;4954057;28;20177;-70
2022/05/04 02:34:33;;;;;;;12.40;11.10;;;11.00;99.90;;;;;;4945206;28;20174;-70
2022/05/04 02:39:43;;;;;;;11.97;10.73;;;11.00;99.90;;;;;;4953434;28;20567;-70
2022/05/04 02:42:10;;;;;;;12.43;11.33;;;11.10;99.90;;;;;;4952607;28;20448;-70
2022/05/04 02:44:35;;;;;;;12.27;11.20;;;11.10;99.90;;;;;;4952926;28;20185;-72
2022/05/04 02:47:01;;;;;;;12.40;11.30;;;11.20;99.90;;;;;;4952843;28;20480;-70
2022/05/04 02:49:26;;;;;;;11.43;9.93;;;11.10;99.90;;;;;;4942180;28;20219;-71
2022/05/04 02:51:52;;;;;;;11.27;10.27;;;11.10;99.90;;;;;;4953554;28;20184;-70
2022/05/04 02:54:17;;;;;;;11.60;10.60;;;11.20;99.90;;;;;;4951450;28;20185;-70
2022/05/04 02:56:43;;;;;;;12.27;11.20;;;11.10;99.90;;;;;;4952477;28;20649;-72
2022/05/04 02:59:08;;;;;;;13.20;12.10;;;11.00;99.90;;;;;;4953389;28;20208;-70
2022/05/04 03:04:18;;;;;;;12.40;11.20;;;10.90;99.90;;;;;;4952718;28;20315;-71
2022/05/04 03:06:43;;;;;;;16.27;11.10;;;11.00;99.90;;;;;;4952735;28;20563;-74
2022/05/04 03:09:10;;;;;;;12.17;11.03;;;11.10;99.90;;;;;;4951858;28;20730;-70
2022/05/04 03:11:54;;;;;;;11.70;10.50;;;11.00;99.90;;;;;;4952395;28;20180;-70
2022/05/04 03:14:21;;;;;;;14.00;11.00;;;11.10;99.90;;;;;;4952329;28;20436;-70
2022/05/04 03:16:47;;;;;;;12.97;11.53;;;11.20;99.90;;;;;;4952860;28;20507;-70
2022/05/04 03:19:13;;;;;;;13.00;11.70;;;11.20;99.90;;;;;;4951938;28;20547;-70
2022/05/04 03:21:39;;;;;;;12.30;11.10;;;11.20;99.90;;;;;;4952184;28;20887;-72
2022/05/04 03:24:05;;;;;;;13.00;11.90;;;11.10;99.90;;;;;;4953204;28;20181;-70
2022/05/04 03:26:31;;;;;;;14.20;11.67;;;11.10;99.90;;;;;;4953855;28;20208;-70
2022/05/04 03:28:56;;;;;;;11.70;10.63;;;11.20;99.90;;;;;;4917615;28;1028961;-70
2022/05/04 03:31:22;;;;;;;10.70;9.63;;;11.30;99.90;;;;;;4952066;28;20208;-71
2022/05/04 03:33:47;;;;;;;11.53;10.47;;;11.30;99.90;;;;;;4952755;28;20185;-70
2022/05/04 03:36:13;;;;;;;11.10;10.00;;;11.30;99.90;;;;;;4952781;28;20195;-70
2022/05/04 03:38:39;;;;;;;11.90;10.90;;;11.20;99.90;;;;;;4951587;28;20207;-70
2022/05/04 03:41:05;;;;;;;18.30;11.40;;;11.20;99.90;;;;;;4953616;28;20212;-70
2022/05/04 03:43:30;;;;;;;13.20;11.83;;;11.20;99.90;;;;;;4951479;28;20295;-74
2022/05/04 03:46:15;;;;;;;11.40;10.37;;;11.30;99.90;;;;;;4953022;28;20554;-70
2022/05/04 03:48:41;;;;;;;12.07;10.97;;;11.30;99.90;;;;;;4933106;28;20201;-71
2022/05/04 03:51:06;;;;;;;12.37;11.17;;;11.20;99.90;;;;;;4952224;28;20444;-70
2022/05/04 03:53:32;;;;;;;18.87;11.40;;;11.20;99.90;;;;;;4953290;28;20239;-70
2022/05/04 03:55:57;;;;;;;12.40;11.30;;;11.30;99.90;;;;;;4951546;28;20188;-70
2022/05/04 03:58:23;;;;;;;12.50;11.30;;;11.30;99.90;;;;;;4951278;28;20216;-70
2022/05/04 04:00:48;;;;;;;15.73;10.97;;;11.30;99.90;;;;;;4951635;28;20204;-70
2022/05/04 04:03:14;;;;;;;11.90;10.90;;;11.30;99.90;;;;;;4953037;28;20707;-70
2022/05/04 04:05:39;;;;;;;13.10;11.83;;;11.30;99.90;;;;;;4952238;28;20213;-70
2022/05/04 04:08:05;;;;;;;15.37;13.87;;;11.30;99.90;;;;;;4952829;28;20201;-73
2022/05/04 04:10:30;;;;;;;13.47;12.23;;;11.20;99.90;;;;;;4951639;28;20639;-70
2022/05/04 04:12:56;;;;;;;11.80;10.60;;;11.20;99.90;;;;;;4953089;28;20189;-70
2022/05/04 04:15:21;;;;;;;10.87;9.77;;;11.20;99.90;;;;;;4954145;28;20181;-73
2022/05/04 04:17:47;;;;;;;10.70;9.70;;;11.30;99.90;;;;;;4953467;28;20243;-70
2022/05/04 04:22:57;;;;;;;11.37;10.33;;;11.40;99.90;;;;;;4952744;28;20331;-71
2022/05/04 04:25:23;;;;;;;11.73;10.60;;;11.40;99.90;;;;;;4951791;28;20531;-70
2022/05/04 04:27:48;;;;;;;10.70;9.70;;;11.50;99.90;;;;;;4952402;28;20216;-70
2022/05/04 04:30:14;;;;;;;12.73;11.53;;;11.50;99.90;;;;;;4951060;28;20640;-70
2022/05/04 04:32:39;;;;;;;11.97;10.87;;;11.40;99.90;;;;;;4952070;28;20192;-70
2022/05/04 04:35:05;;;;;;;11.93;10.87;;;11.30;99.90;;;;;;4952553;28;20649;-70
2022/05/04 04:37:31;;;;;;;13.07;11.67;;;11.30;99.90;;;;;;4952588;28;20761;-70
2022/05/04 04:39:56;;;;;;;11.87;10.53;;;11.40;99.90;;;;;;4952504;28;20486;-70
2022/05/04 04:42:22;;;;;;;11.50;10.43;;;11.40;99.90;;;;;;4951757;28;20213;-71
2022/05/04 04:44:47;;;;;;;12.90;11.70;;;11.50;99.90;;;;;;4950833;28;20185;-70
2022/05/04 04:47:13;;;;;;;12.00;10.90;;;11.60;99.90;;;;;;4954156;28;20224;-71
2022/05/04 04:49:38;;;;;;;12.83;11.63;;;11.60;99.90;;;;;;4944773;28;20182;-72
2022/05/04 04:52:04;;;;;;;11.73;10.67;;;11.60;99.90;;;;;;4951780;28;20184;-70
2022/05/04 04:54:29;;;;;;;12.30;11.10;;;11.60;99.90;;;;;;4952490;28;20177;-71
2022/05/04 04:56:55;;;;;;;13.63;12.33;;;11.60;99.90;;;;;;4950778;28;21481;-72
2022/05/04 04:59:20;;;;;;;15.70;11.33;;;11.70;99.90;;;;;;4950160;28;20212;-70
2022/05/04 05:01:46;;;;;;;11.97;10.90;;;11.70;99.90;;;;;;4950643;28;20193;-71
2022/05/04 05:04:11;;;;;;;10.50;9.60;;;11.70;99.90;;;;;;4951424;28;20267;-72
2022/05/04 05:06:37;;;;;;;10.20;9.40;;;11.70;99.90;;;;;;4952021;28;20215;-71
2022/05/04 05:09:02;;;;;;;11.63;10.43;;;11.80;99.90;;;;;;4952776;28;20587;-70
2022/05/04 05:11:28;;;;;;;11.80;10.67;;;11.90;99.90;;;;;;4952555;28;20558;-72
2022/05/04 05:16:38;;;;;;;9.90;9.10;;;12.00;99.90;;;;;;4952122;28;20206;-70
2022/05/04 05:19:03;;;;;;;10.70;9.80;;;12.00;99.90;;;;;;4952012;28;20460;-70
2022/05/04 05:21:29;;;;;;;10.83;9.57;;;12.10;99.90;;;;;;4953007;28;20184;-70
2022/05/04 05:23:55;;;;;;;12.57;10.27;;;12.10;99.90;;;;;;4952255;28;20605;-70
2022/05/04 05:26:20;;;;;;;10.30;9.40;;;12.30;99.90;;;;;;4952239;28;20211;-70
2022/05/04 05:28:47;;;;;;;10.23;9.23;;;12.40;99.90;;;;;;4952191;28;20233;-70
2022/05/04 05:31:13;;;;;;;12.23;8.97;;;12.40;99.90;;;;;;4956189;28;20208;-71
2022/05/04 05:33:39;;;;;;;10.50;9.60;;;12.50;99.90;;;;;;4958409;28;20481;-71
2022/05/04 05:36:05;;;;;;;11.80;9.73;;;12.60;99.90;;;;;;4956517;28;20468;-71
2022/05/04 05:38:31;;;;;;;10.63;9.73;;;12.60;99.90;;;;;;4955305;28;20259;-72
2022/05/04 05:40:56;;;;;;;14.90;13.40;;;12.60;99.90;;;;;;4954654;28;20452;-74
2022/05/04 05:43:22;;;;;;;14.77;13.37;;;12.70;99.90;;;;;;4954228;28;20223;-70
2022/05/04 05:45:47;;;;;;;13.80;12.60;;;12.70;99.90;;;;;;4955773;28;20632;-71
2022/05/04 05:48:13;;;;;;;14.50;12.90;;;12.70;99.90;;;;;;4955895;28;20741;-72
2022/05/04 05:50:39;;;;;;;17.20;14.23;;;12.80;99.90;;;;;;4956420;28;20185;-70
2022/05/04 05:53:05;;;;;;;12.70;11.57;;;12.80;99.90;;;;;;4956531;28;20196;-70
2022/05/04 05:55:31;;;;;;;13.70;12.50;;;12.90;99.90;;;;;;4955328;28;20471;-71
2022/05/04 05:57:56;;;;;;;14.50;13.10;;;13.00;99.90;;;;;;4955758;28;20211;-71
2022/05/04 06:00:22;;;;;;;13.40;12.30;;;13.10;99.90;;;;;;4955347;28;20203;-70
2022/05/04 06:02:47;;;;;;;14.17;12.77;;;13.20;99.90;;;;;;4955733;28;20247;-70
2022/05/04 06:05:13;;;;;;;13.53;11.90;;;13.20;99.90;;;;;;4956329;28;20209;-70
2022/05/04 06:07:39;;;;;;;11.77;10.50;;;13.10;99.90;;;;;;4958031;28;20303;-71
2022/05/04 06:10:05;;;;;;;11.83;10.67;;;13.10;99.90;;;;;;4955455;28;20180;-70
2022/05/04 06:12:31;;;;;;;11.07;9.90;;;13.10;99.90;;;;;;4956176;28;20181;-70
2022/05/04 06:14:57;;;;;;;11.23;10.30;;;13.20;99.90;;;;;;4956068;28;21058;-73
2022/05/04 06:17:22;;;;;;;10.90;9.80;;;13.30;99.90;;;;;;4955452;28;20685;-72
2022/05/04 06:19:48;;;;;;;13.97;12.63;;;13.40;99.90;;;;;;4955001;28;20185;-70
2022/05/04 06:22:14;;;;;;;13.40;11.40;;;13.40;99.90;;;;;;4955525;28;20212;-71
2022/05/04 06:24:39;;;;;;;12.60;11.40;;;13.30;99.90;;;;;;4955975;28;20596;-70
2022/05/04 06:27:05;;;;;;;12.30;11.10;;;13.40;99.90;;;;;;4955776;28;20200;-70
2022/05/04 06:35:04;;;;;;;9.87;8.83;;;13.30;99.90;;;;;;4955985;28;20435;-69
2022/05/04 06:37:30;;;;;;;12.10;8.83;;;13.40;99.90;;;;;;4955770;28;20547;-69
2022/05/04 06:39:56;;;;;;;10.03;8.77;;;13.40;99.90;;;;;;4954095;28;20519;-70
2022/05/04 06:42:21;;;;;;;8.83;7.97;;;13.30;99.90;;;;;;4953279;28;20214;-69
2022/05/04 06:44:47;;;;;;;9.40;8.70;;;13.30;99.90;;;;;;4953658;28;20188;-70
2022/05/04 06:47:12;;;;;;;18.70;16.33;;;13.30;99.90;;;;;;4953265;28;20208;-72
2022/05/04 06:49:38;;;;;;;10.10;9.27;;;13.40;99.90;;;;;;4950417;28;20205;-69
2022/05/04 06:52:04;;;;;;;9.70;8.90;;;13.40;99.90;;;;;;4956888;28;20176;-70
2022/05/04 06:54:29;;;;;;;9.43;8.63;;;13.50;99.90;;;;;;4956429;28;20460;-70
2022/05/04 06:56:55;;;;;;;10.63;9.47;;;13.70;99.90;;;;;;4955206;28;20663;-71
2022/05/04 06:59:21;;;;;;;9.60;8.80;;;13.90;99.90;;;;;;4954508;28;20384;-70
2022/05/04 07:01:47;;;;;;;9.60;8.90;;;14.00;99.90;;;;;;4956203;28;20199;-69
2022/05/04 07:04:12;;;;;;;9.40;8.43;;;14.10;99.90;;;;;;4955115;28;20966;-70
2022/05/04 07:06:38;;;;;;;10.80;9.40;;;14.20;99.90;;;;;;4949728;28;20240;-73
2022/05/04 07:09:03;;;;;;;10.03;9.00;;;14.40;99.90;;;;;;4926720;28;20671;-69
2022/05/04 07:11:30;;;;;;;10.00;9.10;;;14.50;99.90;;;;;;4939917;28;20268;-68
2022/05/04 07:13:55;;;;;;;8.63;8.00;;;14.70;99.90;;;;;;4953455;28;20177;-68
2022/05/04 07:16:21;;;;;;;10.67;7.37;;;14.80;99.90;;;;;;4952455;28;20820;-69
2022/05/04 07:18:46;;;;;;;8.00;7.30;;;14.90;99.90;;;;;;4946373;28;20216;-69
2022/05/04 07:21:12;;;;;;;7.53;6.90;;;14.80;99.90;;;;;;4952994;28;20184;-67
2022/05/04 07:23:37;;;;;;;7.73;6.97;;;14.60;99.90;;;;;;4955810;28;20655;-72
2022/05/04 07:26:03;;;;;;;7.23;6.73;;;14.50;99.90;;;;;;4953897;28;20686;-67
2022/05/04 07:28:28;;;;;;;8.03;7.33;;;14.60;99.90;;;;;;4948925;28;20212;-68
2022/05/04 07:30:54;;;;;;;8.13;7.53;;;14.60;99.90;;;;;;4953834;28;20184;-67
2022/05/04 07:33:19;;;;;;;15.97;14.57;;;14.50;99.90;;;;;;4953672;28;20177;-67
2022/05/04 07:35:45;;;;;;;10.90;9.63;;;14.50;99.90;;;;;;4954201;28;20192;-68
2022/05/04 07:38:10;;;;;;;8.40;7.57;;;14.70;99.90;;;;;;4956128;28;20623;-68
2022/05/04 07:43:20;;;;;;;9.53;8.60;;;14.70;99.90;;;;;;4956312;28;20647;-67
2022/05/04 07:45:45;;;;;;;9.00;8.20;;;15.00;99.90;;;;;;4953494;28;20500;-67
2022/05/04 07:48:11;;;;;;;9.10;8.30;;;15.10;99.90;;;;;;4951003;28;20207;-68
2022/05/04 07:50:37;;;;;;;9.63;8.80;;;15.10;99.90;;;;;;4956098;28;20619;-69
2022/05/04 07:53:03;;;;;;;9.90;9.00;;;15.10;99.90;;;;;;4952954;28;20181;-70
2022/05/04 07:55:30;;;;;;;8.53;7.63;;;15.10;99.90;;;;;;4956026;28;20811;-69
2022/05/04 07:57:56;;;;;;;8.90;8.20;;;15.20;99.90;;;;;;4952360;28;20737;-68
2022/05/04 08:05:50;;;;;;;8.97;8.10;;;15.00;99.90;;;;;;4953973;28;20466;-68
2022/05/04 08:08:15;;;;;;;9.20;8.40;;;15.10;99.90;;;;;;4952307;28;20463;-70
2022/05/04 08:10:41;;;;;;;9.53;8.70;;;15.30;99.90;;;;;;4957530;28;20559;-68
2022/05/04 08:13:07;;;;;;;8.70;8.00;;;15.40;99.90;;;;;;4954386;28;20215;-68
2022/05/04 08:15:33;;;;;;;9.60;8.70;;;15.40;99.90;;;;;;4958522;28;20187;-68
2022/05/04 08:17:58;;;;;;;9.87;8.97;;;15.20;99.90;;;;;;4950602;28;20196;-71
2022/05/04 08:20:25;;;;;;;10.10;9.30;;;15.10;99.90;;;;;;4953778;28;20266;-68
2022/05/04 08:22:51;;;;;;;10.40;9.40;;;15.10;99.90;;;;;;4955979;28;20236;-72
2022/05/04 08:25:17;;;;;;;9.83;8.83;;;15.10;99.90;;;;;;4954791;28;20433;-68
2022/05/04 08:27:46;;;;;;;10.17;9.17;;;14.90;99.90;;;;;;4954062;28;21012;-69
2022/05/04 08:30:12;;;;;;;10.20;9.30;;;14.90;99.90;;;;;;4952358;28;20182;-69
2022/05/04 08:32:38;;;;;;;10.27;9.30;;;14.90;99.90;;;;;;4951985;28;20824;-69
2022/05/04 08:35:04;;;;;;;12.13;9.70;;;14.90;99.90;;;;;;4953318;28;20236;-69
2022/05/04 08:37:30;;;;;;;9.40;8.60;;;15.00;99.90;;;;;;4953248;28;20240;-69
2022/05/04 08:39:56;;;;;;;8.60;7.90;;;15.10;99.90;;;;;;4950925;28;20957;-69
2022/05/04 08:42:22;;;;;;;9.07;8.27;;;15.10;99.90;;;;;;4949107;28;20185;-68
2022/05/04 08:44:55;;;;;;;9.60;8.80;;;15.20;99.90;;;;;;4963482;28;20815;-68
2022/05/04 08:47:22;;;;;;;9.40;8.50;;;15.10;99.90;;;;;;4947328;28;20460;-68
2022/05/04 08:49:49;;;;;;;9.80;9.00;;;15.00;99.90;;;;;;4951612;28;20440;-69
2022/05/04 08:52:15;;;;;;;8.83;8.10;;;15.10;99.90;;;;;;4948944;28;20433;-69
2022/05/04 08:54:43;;;;;;;10.73;9.73;;;15.10;99.90;;;;;;4955469;28;20518;-68
2022/05/04 08:57:08;;;;;;;8.97;8.07;;;15.30;99.90;;;;;;4951485;28;20436;-68
2022/05/04 08:59:34;;;;;;;8.20;7.57;;;15.40;99.90;;;;;;4952587;28;20432;-68
2022/05/04 09:02:00;;;;;;;7.90;7.30;;;15.50;99.90;;;;;;4953168;28;20199;-68
2022/05/04 09:04:25;;;;;;;9.20;7.60;;;15.70;99.90;;;;;;4951741;28;20993;-68
2022/05/04 09:06:51;;;;;;;8.37;6.60;;;15.90;99.90;;;;;;4952493;29;20204;-68
2022/05/04 09:09:16;;;;;;;9.47;7.93;;;16.20;99.90;;;;;;4953595;28;20193;-69
2022/05/04 09:11:43;;;;;;;9.03;8.03;;;16.20;99.90;;;;;;4952280;28;20211;-69
2022/05/04 09:14:20;;;;;;;8.13;7.40;;;16.20;99.90;;;;;;4947169;29;20169;-69
2022/05/04 09:16:46;;;;;;;10.63;7.50;;;16.20;99.90;;;;;;4945366;28;20436;-69
2022/05/04 09:19:17;;;;;;;8.00;7.30;;;16.50;99.90;;;;;;4937401;28;20875;-69
2022/05/04 09:21:45;;;;;;;7.20;6.60;;;16.80;99.90;;;;;;4952884;28;20443;-69
2022/05/04 09:24:14;;;;;;;8.07;7.30;;;17.10;99.90;;;;;;4951677;28;20934;-69
2022/05/04 09:26:44;;;;;;;9.17;6.20;;;17.50;99.90;;;;;;4952944;28;20543;-70
2022/05/04 09:29:12;;;;;;;7.63;7.00;;;18.10;99.90;;;;;;4936742;29;20858;-69
2022/05/04 09:31:41;;;;;;;9.00;6.30;;;18.60;99.90;;;;;;4951402;28;20445;-68
2022/05/04 09:34:08;;;;;;;6.93;6.33;;;18.70;99.90;;;;;;4952489;28;20440;-69
2022/05/04 09:44:53;;;;;;;7.43;6.73;;;19.10;99.90;;;;;;4951211;28;20449;-68
2022/05/04 09:45:16;;;;;;;7.23;6.63;;;20.20;99.90;;;;;;4952680;28;20451;-69
2022/05/04 09:47:46;;;;;;;10.60;6.60;;;20.20;99.90;;;;;;4952031;28;20474;-69
2022/05/04 09:50:14;;;;;;;8.57;6.90;;;20.10;99.90;;;;;;4951923;28;20517;-69
2022/05/04 09:52:43;;;;;;;7.30;6.60;;;20.20;99.90;;;;;;4952468;28;20440;-69
2022/05/04 09:55:16;;;;;;;6.70;6.00;;;20.40;99.90;;;;;;4952945;28;20438;-69
2022/05/04 09:57:43;;;;;;;7.60;6.27;;;20.90;99.90;;;;;;4952016;28;20460;-69
2022/05/04 10:00:09;;;;;;;6.97;6.37;;;22.00;99.90;;;;;;4951167;28;20445;-70
2022/05/04 10:02:37;;;;;;;6.00;5.60;;;23.40;99.90;;;;;;4934687;28;20447;-69
2022/05/04 10:05:03;;;;;;;6.27;5.87;;;25.10;99.90;;;;;;4950732;28;20507;-70
2022/05/04 10:07:30;;;;;;;5.50;5.10;;;26.00;99.90;;;;;;4953858;28;20464;-70
2022/05/04 10:09:55;;;;;;;5.73;5.33;;;25.90;99.90;;;;;;4951765;28;20463;-70
2022/05/04 10:12:21;;;;;;;6.00;5.60;;;26.00;99.90;;;;;;4954627;28;20448;-70
2022/05/04 10:14:47;;;;;;;7.83;7.23;;;26.40;99.90;;;;;;4953634;28;20268;-70
2022/05/04 10:17:18;;;;;;;7.97;6.93;;;26.50;99.90;;;;;;4954084;28;20328;-69
2022/05/04 10:20:05;;;;;;;8.67;7.87;;;26.50;99.90;;;;;;4956751;28;20534;-70
2022/05/04 10:22:56;;;;;;;6.60;5.90;;;26.40;99.90;;;;;;4955622;28;20486;-67
2022/05/04 10:25:24;;;;;;;6.80;6.20;;;26.30;99.90;;;;;;4951330;28;20451;-67
2022/05/04 10:27:49;;;;;;;9.87;8.53;;;26.40;99.90;;;;;;4956543;28;20551;-67
2022/05/04 10:30:33;;;;;;;9.30;8.50;;;26.20;99.90;;;;;;4956968;28;20534;-68
2022/05/04 10:33:05;;;;;;;10.90;8.57;;;25.90;99.90;;;;;;4956587;28;20213;-66
2022/05/04 10:35:33;;;;;;;9.73;9.03;;;26.50;99.90;;;;;;4954970;28;20432;-67
2022/05/04 10:37:59;;;;;;;21.80;15.03;;;27.90;94.20;;;;;;4952750;28;20460;-69
2022/05/04 10:40:33;;;;;;;17.90;14.30;;;28.50;91.80;;;;;;4954743;28;20838;-69
2022/05/04 10:43:01;;;;;;;20.57;15.47;;;29.40;89.60;;;;;;4953354;28;20180;-71
2022/05/04 10:45:33;;;;;;;14.47;12.53;;;30.70;81.90;;;;;;4954454;28;20526;-70
2022/05/04 10:48:12;;;;;;;8.10;7.20;;;30.80;68.10;;;;;;4958337;28;20460;-69
2022/05/04 10:50:53;;;;;;;5.70;4.80;;;30.60;63.60;;;;;;4952030;28;20448;-70
2022/05/04 10:53:36;;;;;;;8.20;7.10;;;31.00;63.40;;;;;;4954991;28;20959;-68
2022/05/04 10:56:01;;;;;;;8.80;7.97;;;32.30;59.80;;;;;;4954175;28;20492;-67
2022/05/04 10:58:37;;;;;;;9.70;7.23;;;33.40;57.40;;;;;;4953646;28;20464;-67
2022/05/04 11:01:25;;;;;;;6.20;5.80;;;33.70;56.80;;;;;;4960393;28;20567;-68
2022/05/04 11:04:17;;;;;;;5.67;5.27;;;33.00;55.90;;;;;;4951086;28;20444;-67
2022/05/04 11:06:58;;;;;;;7.33;6.70;;;34.10;52.80;;;;;;4958760;28;20467;-68
2022/05/04 11:09:39;;;;;;;5.63;4.27;;;34.90;51.80;;;;;;4958810;28;20975;-67
2022/05/04 11:12:07;;;;;;;6.40;5.90;;;35.40;47.70;;;;;;4947936;28;20945;-67
2022/05/04 11:14:36;;;;;;;6.57;5.90;;;35.90;47.20;;;;;;4950271;28;20946;-67
2022/05/04 11:17:13;;;;;;;5.97;5.57;;;36.40;46.30;;;;;;4949779;28;20476;-69
2022/05/04 11:19:44;;;;;;;4.73;4.30;;;35.70;45.70;;;;;;4951549;28;20436;-67
2022/05/04 11:22:10;;;;;;;3.97;3.77;;;35.90;43.80;;;;;;4950459;28;20440;-68
2022/05/04 11:24:37;;;;;;;8.63;8.07;;;33.50;45.30;;;;;;4951616;28;20443;-66
2022/05/04 11:27:04;;;;;;;5.77;5.27;;;33.00;46.90;;;;;;4949205;28;20802;-69
2022/05/04 11:29:29;;;;;;;4.93;4.63;;;32.60;47.60;;;;;;4951506;28;20479;-71
2022/05/04 11:31:57;;;;;;;5.67;5.27;;;32.90;47.60;;;;;;4950013;28;20453;-72
2022/05/04 11:34:23;;;;;;;6.70;5.00;;;33.00;46.30;;;;;;4949855;28;20468;-72
2022/05/04 11:36:51;;;;;;;4.27;3.70;;;32.50;45.40;;;;;;4950031;28;20475;-72
2022/05/04 11:39:18;;;;;;;4.47;4.17;;;32.90;45.40;;;;;;4948907;28;20463;-72
2022/05/04 11:41:48;;;;;;;6.17;4.60;;;33.20;46.00;;;;;;4949882;28;20959;-71
2022/05/04 11:44:14;;;;;;;5.87;4.60;;;33.00;45.70;;;;;;4933623;29;20440;-72
2022/05/04 11:46:44;;;;;;;4.60;4.20;;;31.90;44.90;;;;;;4949281;28;20535;-71
2022/05/04 11:49:11;;;;;;;5.30;4.93;;;31.30;45.90;;;;;;4948279;28;20483;-71
2022/05/04 11:51:37;;;;;;;4.80;4.50;;;31.30;46.50;;;;;;4949481;28;20969;-71
2022/05/04 11:54:04;;;;;;;4.10;3.90;;;30.60;46.40;;;;;;4950356;28;20468;-71
2022/05/04 11:56:29;;;;;;;4.10;3.77;;;30.30;46.80;;;;;;4948975;28;20464;-71
2022/05/04 11:58:55;;;;;;;4.90;4.47;;;30.40;47.80;;;;;;4947547;28;20472;-71
2022/05/04 12:01:21;;;;;;;5.37;5.03;;;29.90;47.30;;;;;;4949470;28;20193;-71
2022/05/04 12:03:47;;;;;;;4.30;4.00;;;29.20;47.40;;;;;;4948685;28;20638;-71
2022/05/04 12:06:16;;;;;;;5.53;5.03;;;26.30;60.90;;;;;;4949994;28;20452;-71
2022/05/04 12:08:42;;;;;;;5.40;4.90;;;26.20;50.40;;;;;;4948270;28;20468;-71
2022/05/04 12:11:08;;;;;;;5.37;5.00;;;25.30;52.70;;;;;;4948732;28;20934;-71
2022/05/04 12:13:40;;;;;;;6.33;5.73;;;24.80;56.00;;;;;;4948607;28;20502;-71
2022/05/04 12:16:07;;;;;;;7.23;6.73;;;24.60;55.90;;;;;;4947970;28;20472;-70
2022/05/04 12:18:34;;;;;;;5.67;5.10;;;24.50;56.50;;;;;;4951763;28;20498;-70
2022/05/04 12:21:07;;;;;;;6.27;5.87;;;24.30;56.80;;;;;;4949167;28;20448;-70
2022/05/04 12:23:35;;;;;;;6.53;6.07;;;23.90;57.90;;;;;;4946979;28;20531;-70
2022/05/04 12:26:01;;;;;;;6.60;6.10;;;23.50;59.00;;;;;;4942482;28;20468;-70
2022/05/04 12:28:27;;;;;;;6.90;6.40;;;23.30;59.80;;;;;;4949575;28;21295;-70
2022/05/04 12:33:39;;;;;;;6.13;5.73;;;23.00;61.80;;;;;;4949178;28;20188;-69
2022/05/04 12:36:10;;;;;;;7.13;6.47;;;22.50;62.10;;;;;;4948321;28;20472;-70
2022/05/04 12:38:37;;;;;;;5.93;5.53;;;22.60;62.90;;;;;;4946762;28;21082;-69
2022/05/04 12:41:05;;;;;;;5.60;5.20;;;22.90;61.60;;;;;;4947863;28;20571;-70
2022/05/04 12:43:33;;;;;;;7.70;6.83;;;23.40;61.00;;;;;;4950893;28;20444;-70
2022/05/04 12:45:59;;;;;;;6.47;5.73;;;23.30;61.20;;;;;;4948234;28;20472;-70
2022/05/04 12:48:25;;;;;;;5.73;5.00;;;22.80;62.50;;;;;;4952825;28;20475;-69
2022/05/04 12:50:55;;;;;;;6.67;5.53;;;22.50;63.10;;;;;;4949307;28;20573;-69
2022/05/04 12:53:21;;;;;;;5.90;5.50;;;22.30;64.10;;;;;;4947871;28;20455;-69
2022/05/04 12:58:31;;;;;;;5.67;5.37;;;22.10;67.60;;;;;;4948146;28;20518;-69
2022/05/04 13:00:57;;;;;;;13.73;7.10;;;21.90;68.50;;;;;;4950226;28;21287;-69
2022/05/04 13:03:22;;;;;;;7.93;7.13;;;22.10;69.70;;;;;;4949847;28;20240;-69
2022/05/04 13:05:48;;;;;;;6.93;6.43;;;22.00;71.20;;;;;;4949300;28;20181;-69
2022/05/04 13:08:13;;;;;;;8.30;5.83;;;21.50;73.30;;;;;;4949215;28;20325;-69
2022/05/04 13:10:40;;;;;;;6.67;6.17;;;21.50;73.10;;;;;;4949097;28;20196;-69
2022/05/04 13:13:05;;;;;;;7.00;6.40;;;21.30;75.40;;;;;;4949266;28;20185;-69